Cocoa, Florida
Current Conditions -  °F | °C
As of 7:58 PM on Tuesday 25 Nov 2014 (Local Time) from KCOF Reporting Station
Thunderstorm Thunderstorm  
Wind Chill: 75°   Ceiling: Unl
Heat Index: 75°   Visibility: 10mi
Dew Point: 73°   Wind: 10mph
Humidity: 96%   Direction: 200°SSW
Pressure: 29.93"   Gusts: NA
Location:  28.35°N, 80.73°W
Report Text: KCOF 260058Z AUTO 20009KT 10SM VCTS FEW033 24/23 A2993 RMK AO2 LTG DSNT W RAE0025B0040E0051DZB0025E0030 SLP140 P0007 T02370230
Loading
Personal Weather Stations






























Interactive Weather Map New forecast layout! Learn more

10-Day Weather Forecast

Advertisements
Track Severe Weather on mobile